Time;durP1;ratioP1;P1;durP2;ratioP2;P2;SDS_P1;SDS_P2;PMS_P1;PMS_P2;Temp;Humidity;BMP_temperature;BMP_pressure;BME280_temperature;BME280_humidity;BME280_pressure;Samples;Min_cycle;Max_cycle;Signal;HPM_P1;HPM_P2
2022/07/18 00:01:17;;;;;;;3.70;1.67;;;;;;;;;;5127087;28;20025;-70
2022/07/18 00:03:43;;;;;;;2.95;1.55;;;;;;;;;;5111132;28;20016;-70
2022/07/18 00:07:28;;;;;;;3.45;1.58;;;;;;;;;;5112078;27;20397;-70
2022/07/18 00:09:54;;;;;;;4.15;1.52;;;;;;;;;;5111649;28;20024;-70
2022/07/18 00:12:20;;;;;;;3.58;1.80;;;;;;;;;;5110924;28;20016;-70
2022/07/18 00:14:46;;;;;;;4.07;1.60;;;;;;;;;;5110032;28;20494;-70
2022/07/18 00:19:08;;;;;;;3.20;1.65;;;;;;;;;;5152408;27;20110;-70
2022/07/18 00:21:34;;;;;;;3.25;1.75;;;;;;;;;;5131928;28;20519;-70
2022/07/18 00:24:01;;;;;;;3.63;1.70;;;;;;;;;;5131780;28;20024;-70
2022/07/18 00:26:27;;;;;;;2.20;1.25;;;;;;;;;;5131427;28;20027;-70
2022/07/18 00:30:11;;;;;;;7.43;1.80;;;;;;;;;;5111503;27;20397;-71
2022/07/18 00:32:37;;;;;;;1.95;1.15;;;;;;;;;;5109687;28;20028;-71
2022/07/18 00:35:04;;;;;;;3.40;1.45;;;;;;;;;;5111279;28;20027;-70
2022/07/18 00:37:49;;;;;;;2.60;1.55;;;;;;;;;;5111840;27;20469;-71
2022/07/18 00:40:15;;;;;;;3.08;1.33;;;;;;;;;;5110925;28;20024;-70
2022/07/18 00:42:41;;;;;;;3.17;1.65;;;;;;;;;;5111234;28;20020;-70
2022/07/18 00:48:08;;;;;;;3.10;1.60;;;;;;;;;;5070874;28;20411;-70
2022/07/18 00:52:02;;;;;;;5.07;1.65;;;;;;;;;;5112180;27;20388;-70
2022/07/18 00:54:28;;;;;;;3.38;1.75;;;;;;;;;;5110977;28;20114;-70
2022/07/18 00:58:43;;;;;;;3.28;1.50;;;;;;;;;;5111965;27;20397;-70
2022/07/18 01:03:55;;;;;;;2.60;1.40;;;;;;;;;;5111726;28;20050;-70
2022/07/18 01:08:58;;;;;;;2.50;1.50;;;;;;;;;;5111109;27;20950;-70
2022/07/18 01:11:25;;;;;;;3.22;1.70;;;;;;;;;;5110077;28;20397;-70
2022/07/18 01:14:40;;;;;;;3.38;1.33;;;;;;;;;;5111306;27;20907;-70
2022/07/18 01:19:41;;;;;;;6.40;1.40;;;;;;;;;;5112006;27;20434;-70
2022/07/18 01:22:07;;;;;;;2.90;1.60;;;;;;;;;;5126840;28;20028;-70
2022/07/18 01:24:33;;;;;;;3.90;1.55;;;;;;;;;;5111313;28;20031;-70
2022/07/18 01:26:59;;;;;;;4.82;1.80;;;;;;;;;;5111228;28;20023;-70
2022/07/18 01:29:26;;;;;;;3.38;1.65;;;;;;;;;;5126706;28;20019;-70
2022/07/18 01:34:25;;;;;;;2.50;1.48;;;;;;;;;;5112048;27;20427;-71
2022/07/18 01:36:51;;;;;;;3.05;1.42;;;;;;;;;;5110999;28;20020;-71
2022/07/18 01:39:18;;;;;;;2.20;1.30;;;;;;;;;;5111330;28;20026;-71
2022/07/18 01:41:44;;;;;;;2.65;1.50;;;;;;;;;;5110082;28;20476;-70
2022/07/18 01:44:10;;;;;;;3.78;1.77;;;;;;;;;;5110790;28;20099;-70
2022/07/18 01:48:53;;;;;;;3.58;1.92;;;;;;;;;;5111782;27;20826;-71
2022/07/18 01:52:11;;;;;;;3.00;1.63;;;;;;;;;;5112202;27;20469;-71
2022/07/18 01:54:37;;;;;;;4.93;1.35;;;;;;;;;;5111358;28;20024;-70
2022/07/18 01:57:04;;;;;;;5.13;1.73;;;;;;;;;;5109576;28;20034;-71
2022/07/18 02:00:10;;;;;;;2.03;1.17;;;;;;;;;;5111359;27;20336;-71
2022/07/18 02:03:02;;;;;;;2.58;1.20;;;;;;;;;;5092007;27;20455;-71
2022/07/18 02:05:28;;;;;;;2.72;1.27;;;;;;;;;;5091410;28;20027;-71
2022/07/18 02:07:54;;;;;;;4.53;1.60;;;;;;;;;;5090992;28;20035;-71
2022/07/18 02:10:21;;;;;;;2.60;1.65;;;;;;;;;;5090707;28;20024;-71
2022/07/18 02:12:48;;;;;;;3.38;1.65;;;;;;;;;;5091146;28;20071;-71
2022/07/18 02:17:04;;;;;;;3.05;1.40;;;;;;;;;;5111912;27;20488;-70
2022/07/18 02:19:30;;;;;;;2.63;1.30;;;;;;;;;;5109695;28;20031;-71
2022/07/18 02:21:57;;;;;;;3.25;1.10;;;;;;;;;;5111627;28;20394;-71
2022/07/18 02:24:23;;;;;;;3.88;1.30;;;;;;;;;;5110891;28;20051;-71
2022/07/18 02:27:55;;;;;;;2.38;1.20;;;;;;;;;;5112316;27;20451;-70
2022/07/18 02:31:58;;;;;;;3.15;1.58;;;;;;;;;;5111359;27;20474;-70
2022/07/18 02:36:25;;;;;;;4.38;1.55;;;;;;;;;;5111547;27;20493;-71
2022/07/18 02:38:52;;;;;;;6.22;1.48;;;;;;;;;;5110950;28;20019;-71
2022/07/18 02:41:18;;;;;;;3.22;1.40;;;;;;;;;;5110037;28;20074;-71
2022/07/18 02:43:44;;;;;;;2.28;1.15;;;;;;;;;;5110010;28;20026;-71
2022/07/18 02:46:51;;;;;;;1.77;1.15;;;;;;;;;;5111128;27;20401;-71
2022/07/18 02:49:39;;;;;;;3.78;1.38;;;;;;;;;;5111419;28;20069;-71
2022/07/18 02:52:05;;;;;;;4.10;1.30;;;;;;;;;;5110964;28;20047;-70
2022/07/18 02:54:33;;;;;;;2.13;1.38;;;;;;;;;;5109591;28;20070;-70
2022/07/18 02:56:59;;;;;;;4.72;1.48;;;;;;;;;;5111221;28;20023;-70
2022/07/18 02:59:26;;;;;;;4.15;1.30;;;;;;;;;;5109456;28;20030;-71
2022/07/18 03:01:53;;;;;;;2.90;1.30;;;;;;;;;;5111614;28;20099;-71
2022/07/18 03:05:52;;;;;;;5.35;1.80;;;;;;;;;;5091731;27;20443;-70
2022/07/18 03:08:19;;;;;;;2.97;1.35;;;;;;;;;;5106291;28;20028;-70
2022/07/18 03:10:45;;;;;;;2.90;1.40;;;;;;;;;;5091155;28;20035;-71
2022/07/18 03:13:12;;;;;;;3.83;1.65;;;;;;;;;;5090948;28;20479;-71
2022/07/18 03:15:38;;;;;;;3.15;1.90;;;;;;;;;;5090631;28;20025;-71
2022/07/18 03:18:05;;;;;;;2.50;1.50;;;;;;;;;;5106518;28;20438;-71
2022/07/18 03:21:46;;;;;;;3.63;1.30;;;;;;;;;;5111034;27;20462;-71
2022/07/18 03:24:15;;;;;;;7.20;1.60;;;;;;;;;;5111374;28;20069;-70
2022/07/18 03:26:42;;;;;;;4.93;1.95;;;;;;;;;;5110003;28;20020;-70
2022/07/18 03:29:08;;;;;;;3.42;1.42;;;;;;;;;;5110895;28;20024;-71
2022/07/18 03:31:35;;;;;;;3.08;1.30;;;;;;;;;;5111523;28;20028;-71
2022/07/18 03:34:01;;;;;;;3.60;1.55;;;;;;;;;;5109964;28;20551;-71
2022/07/18 03:36:27;;;;;;;2.38;1.30;;;;;;;;;;5110762;28;20383;-71
2022/07/18 03:42:18;;;;;;;3.63;1.38;;;;;;;;;;5111210;27;20389;-71
2022/07/18 03:44:45;;;;;;;6.53;1.60;;;;;;;;;;5110049;28;20028;-71
2022/07/18 03:47:11;;;;;;;4.47;1.67;;;;;;;;;;5111266;28;20024;-71
2022/07/18 03:49:37;;;;;;;4.30;1.70;;;;;;;;;;5110828;28;20075;-71
2022/07/18 03:53:23;;;;;;;3.00;1.40;;;;;;;;;;5111917;27;20938;-71
2022/07/18 03:56:34;;;;;;;3.78;1.70;;;;;;;;;;5111219;27;20392;-71
2022/07/18 04:01:00;;;;;;;2.63;1.38;;;;;;;;;;5092513;27;20460;-72
2022/07/18 04:03:26;;;;;;;2.78;1.38;;;;;;;;;;5090627;28;20035;-71
2022/07/18 04:08:23;;;;;;;1.83;0.95;;;;;;;;;;5152955;27;20810;-71
2022/07/18 04:10:49;;;;;;;3.90;1.30;;;;;;;;;;5152205;27;20471;-71
2022/07/18 04:16:26;;;;;;;4.82;1.45;;;;;;;;;;5112224;27;20412;-72
2022/07/18 04:19:46;;;;;;;6.07;1.77;;;;;;;;;;5111715;27;20458;-72
2022/07/18 04:22:12;;;;;;;1.58;1.10;;;;;;;;;;5110084;28;20480;-72
2022/07/18 04:25:07;;;;;;;5.45;1.20;;;;;;;;;;5111284;27;20400;-71
2022/07/18 04:27:33;;;;;;;2.40;1.17;;;;;;;;;;5111411;28;20107;-71
2022/07/18 04:29:59;;;;;;;9.70;1.48;;;;;;;;;;5111311;28;20039;-71
2022/07/18 04:33:36;;;;;;;3.03;1.48;;;;;;;;;;5111542;27;20412;-71
2022/07/18 04:36:03;;;;;;;3.13;1.70;;;;;;;;;;5111347;28;20020;-71
2022/07/18 04:38:33;;;;;;;2.38;1.42;;;;;;;;;;5111030;28;20387;-71
2022/07/18 04:41:56;;;;;;;3.13;0.90;;;;;;;;;;5111794;27;20969;-72
2022/07/18 04:44:22;;;;;;;2.35;1.17;;;;;;;;;;5111420;28;20024;-71
2022/07/18 04:48:01;;;;;;;1.38;0.90;;;;;;;;;;5111775;27;20396;-71
2022/07/18 04:50:29;;;;;;;2.33;1.30;;;;;;;;;;5111486;28;20030;-71
2022/07/18 04:56:01;;;;;;;3.70;1.63;;;;;;;;;;5112252;27;20396;-71
2022/07/18 05:04:16;;;;;;;3.80;2.05;;;;;;;;;;5112038;27;20454;-76
2022/07/18 05:08:53;;;;;;;2.15;1.38;;;;;;;;;;5109344;27;20447;-77
2022/07/18 05:11:52;;;;;;;4.43;1.40;;;;;;;;;;5109170;27;20496;-71
2022/07/18 05:14:20;;;;;;;5.68;1.67;;;;;;;;;;5103207;28;20857;-69
2022/07/18 05:16:47;;;;;;;3.67;1.52;;;;;;;;;;5110994;28;20020;-70
2022/07/18 05:19:15;;;;;;;2.67;1.40;;;;;;;;;;5109328;28;20504;-68
2022/07/18 05:21:41;;;;;;;3.28;1.40;;;;;;;;;;5109040;28;20028;-67
2022/07/18 05:24:30;;;;;;;4.35;1.30;;;;;;;;;;5108331;27;20465;-70
2022/07/18 05:26:56;;;;;;;4.57;1.30;;;;;;;;;;5101455;28;20042;-70
2022/07/18 05:29:22;;;;;;;2.53;0.93;;;;;;;;;;5129288;28;20019;-71
2022/07/18 05:34:11;;;;;;;2.88;1.25;;;;;;;;;;5088380;27;20467;-70
2022/07/18 05:36:37;;;;;;;4.78;1.15;;;;;;;;;;5090205;28;20024;-71
2022/07/18 05:39:24;;;;;;;2.75;1.20;;;;;;;;;;5124466;27;21003;-70
2022/07/18 05:41:50;;;;;;;4.90;1.15;;;;;;;;;;5098238;28;20032;-70
2022/07/18 05:44:19;;;;;;;3.15;1.60;;;;;;;;;;5092220;28;20024;-71
2022/07/18 05:46:46;;;;;;;2.80;1.10;;;;;;;;;;5110558;28;20008;-71
2022/07/18 05:49:12;;;;;;;4.05;1.00;;;;;;;;;;5097121;28;20558;-71
2022/07/18 05:51:38;;;;;;;8.32;1.58;;;;;;;;;;5090766;28;20056;-73
2022/07/18 05:57:17;;;;;;;2.72;0.93;;;;;;;;;;5108146;27;20396;-72
2022/07/18 05:59:44;;;;;;;2.70;1.13;;;;;;;;;;5108401;28;20117;-71
2022/07/18 06:02:10;;;;;;;4.40;1.10;;;;;;;;;;5110208;28;20016;-71
2022/07/18 06:04:36;;;;;;;3.05;1.30;;;;;;;;;;5111003;28;20047;-70
2022/07/18 06:09:48;;;;;;;2.65;0.95;;;;;;;;;;5109814;27;20462;-73
2022/07/18 06:13:32;;;;;;;2.88;1.20;;;;;;;;;;5109580;27;20404;-70
2022/07/18 06:15:58;;;;;;;4.07;1.00;;;;;;;;;;5110263;28;20031;-72
2022/07/18 06:18:24;;;;;;;2.60;1.00;;;;;;;;;;5108650;28;20027;-71
2022/07/18 06:20:50;;;;;;;3.58;1.02;;;;;;;;;;5110086;28;20095;-71
2022/07/18 06:23:16;;;;;;;6.10;1.40;;;;;;;;;;5108899;28;20027;-72
2022/07/18 06:25:42;;;;;;;4.07;1.13;;;;;;;;;;5109169;28;20035;-71
2022/07/18 06:28:09;;;;;;;2.92;1.13;;;;;;;;;;5110102;28;20055;-72
2022/07/18 06:30:35;;;;;;;8.02;1.45;;;;;;;;;;5109564;28;20024;-71
2022/07/18 06:33:05;;;;;;;2.10;0.80;;;;;;;;;;5109862;28;20085;-72
2022/07/18 06:38:12;;;;;;;2.40;0.95;;;;;;;;;;5105583;27;20405;-71
2022/07/18 06:40:39;;;;;;;3.35;1.13;;;;;;;;;;5092613;28;20480;-70
2022/07/18 06:43:06;;;;;;;1.83;0.80;;;;;;;;;;5086206;28;20034;-69
2022/07/18 06:47:43;;;;;;;4.25;1.10;;;;;;;;;;5149248;27;20111;-70
2022/07/18 06:52:11;;;;;;;5.32;1.02;;;;;;;;;;5109813;27;20392;-71
2022/07/18 06:57:52;;;;;;;5.68;1.23;;;;;;;;;;5110903;27;20410;-73
2022/07/18 07:00:18;;;;;;;1.48;0.95;;;;;;;;;;5109361;28;20461;-74
2022/07/18 07:02:46;;;;;;;4.15;0.90;;;;;;;;;;5110109;28;20099;-72
2022/07/18 07:05:13;;;;;;;3.92;1.02;;;;;;;;;;5107813;28;20031;-72
2022/07/18 07:07:39;;;;;;;2.30;0.57;;;;;;;;;;5098189;28;20031;-73
2022/07/18 07:12:19;;;;;;;1.42;0.80;;;;;;;;;;5108236;27;20432;-72
2022/07/18 07:14:45;;;;;;;5.07;0.77;;;;;;;;;;5121430;28;20517;-73
2022/07/18 07:17:12;;;;;;;4.32;1.10;;;;;;;;;;5125730;27;20058;-72
2022/07/18 07:19:38;;;;;;;5.03;1.73;;;;;;;;;;5104877;28;20110;-72
2022/07/18 07:22:04;;;;;;;2.25;1.02;;;;;;;;;;5104645;28;20107;-73
2022/07/18 07:24:30;;;;;;;1.92;1.00;;;;;;;;;;5108682;28;20016;-71
2022/07/18 07:26:57;;;;;;;4.25;1.30;;;;;;;;;;5110061;28;20160;-71
2022/07/18 07:29:23;;;;;;;2.50;0.65;;;;;;;;;;5112155;28;20026;-74
2022/07/18 07:31:49;;;;;;;1.42;0.90;;;;;;;;;;5121759;28;20475;-74
2022/07/18 07:34:15;;;;;;;1.42;0.80;;;;;;;;;;5109515;28;20024;-73
2022/07/18 07:36:41;;;;;;;1.67;0.90;;;;;;;;;;5107459;28;20020;-73
2022/07/18 07:39:08;;;;;;;3.95;1.42;;;;;;;;;;5108650;28;20091;-72
2022/07/18 07:41:34;;;;;;;2.30;1.02;;;;;;;;;;5108209;28;20016;-73
2022/07/18 07:44:01;;;;;;;1.55;0.90;;;;;;;;;;5106887;28;20053;-73
2022/07/18 07:46:27;;;;;;;2.13;0.93;;;;;;;;;;5108034;28;20127;-73
2022/07/18 07:48:53;;;;;;;2.92;0.95;;;;;;;;;;5108077;28;20020;-80
2022/07/18 07:51:19;;;;;;;14.32;3.10;;;;;;;;;;5108996;28;20431;-79
2022/07/18 07:53:46;;;;;;;4.78;1.17;;;;;;;;;;5110219;28;20103;-76
2022/07/18 07:56:12;;;;;;;1.55;0.68;;;;;;;;;;5112468;28;20480;-79
2022/07/18 07:58:38;;;;;;;3.42;1.02;;;;;;;;;;5111645;27;20032;-77
2022/07/18 08:01:04;;;;;;;4.63;1.30;;;;;;;;;;5111423;28;20050;-79
2022/07/18 08:03:30;;;;;;;6.43;1.38;;;;;;;;;;5107178;28;20039;-77
2022/07/18 08:05:57;;;;;;;3.58;1.40;;;;;;;;;;5110033;28;20124;-78
2022/07/18 08:08:25;;;;;;;1.92;0.80;;;;;;;;;;5110215;28;20024;-78
2022/07/18 08:10:53;;;;;;;3.55;0.80;;;;;;;;;;5109224;28;20035;-77
2022/07/18 08:13:19;;;;;;;1.63;0.80;;;;;;;;;;5130346;27;20038;-74
2022/07/18 08:15:45;;;;;;;1.70;0.70;;;;;;;;;;5128971;28;20023;-76
2022/07/18 08:18:11;;;;;;;5.55;0.70;;;;;;;;;;5129971;27;20030;-78
2022/07/18 08:20:37;;;;;;;7.35;1.50;;;;;;;;;;5109771;28;20028;-76
2022/07/18 08:23:03;;;;;;;3.10;0.95;;;;;;;;;;5097068;28;20446;-77
2022/07/18 08:25:30;;;;;;;4.10;1.35;;;;;;;;;;5095104;28;20020;-78
2022/07/18 08:28:16;;;;;;;2.67;0.70;;;;;;;;;;5106160;27;20482;-79
2022/07/18 08:30:43;;;;;;;3.47;0.82;;;;;;;;;;5097446;28;20447;-76
2022/07/18 08:33:09;;;;;;;1.35;0.57;;;;;;;;;;5089823;28;20027;-82
2022/07/18 08:35:37;;;;;;;3.13;0.60;;;;;;;;;;5093943;28;20021;-79
2022/07/18 08:39:07;;;;;;;2.83;0.80;;;;;;;;;;5110799;27;20117;-78
2022/07/18 08:41:33;;;;;;;1.65;0.68;;;;;;;;;;5110006;28;20028;-79
2022/07/18 08:46:31;;;;;;;3.10;0.80;;;;;;;;;;5109296;27;20396;-79
2022/07/18 08:48:57;;;;;;;1.60;0.77;;;;;;;;;;5107830;28;20437;-81
2022/07/18 08:51:23;;;;;;;1.60;0.70;;;;;;;;;;5107636;28;20429;-77
2022/07/18 08:55:59;;;;;;;2.60;1.15;;;;;;;;;;5109043;27;20428;-76
2022/07/18 08:58:25;;;;;;;2.00;1.35;;;;;;;;;;5108801;28;20034;-77
2022/07/18 09:00:51;;;;;;;4.90;1.02;;;;;;;;;;5110060;28;20034;-81
2022/07/18 09:06:12;;;;;;;1.75;0.73;;;;;;;;;;5110670;27;20466;-72
2022/07/18 09:08:39;;;;;;;6.47;0.95;;;;;;;;;;5111178;28;20069;-71
2022/07/18 09:12:12;;;;;;;3.05;1.02;;;;;;;;;;5111283;27;20427;-72
2022/07/18 09:14:42;;;;;;;1.98;0.75;;;;;;;;;;5110847;28;20028;-71
2022/07/18 09:17:17;;;;;;;1.98;0.65;;;;;;;;;;5111142;28;20533;-71
2022/07/18 09:19:56;;;;;;;4.70;1.35;;;;;;;;;;5110555;28;20078;-71
2022/07/18 09:22:24;;;;;;;1.77;0.90;;;;;;;;;;5111084;28;20488;-72
2022/07/18 09:25:02;;;;;;;1.85;0.70;;;;;;;;;;5110962;28;20059;-73
2022/07/18 09:27:28;;;;;;;1.52;0.70;;;;;;;;;;5109304;28;20032;-71
2022/07/18 09:30:14;;;;;;;2.60;0.80;;;;;;;;;;5110767;28;20030;-73
2022/07/18 09:32:41;;;;;;;3.85;0.80;;;;;;;;;;5109500;28;20032;-76
2022/07/18 09:36:56;;;;;;;2.15;0.73;;;;;;;;;;5106308;27;20412;-72
2022/07/18 09:39:22;;;;;;;2.58;0.98;;;;;;;;;;5106793;28;20024;-72
2022/07/18 09:41:48;;;;;;;1.73;0.80;;;;;;;;;;5108586;28;20430;-75
2022/07/18 09:44:18;;;;;;;2.60;0.90;;;;;;;;;;5109010;28;20020;-75
2022/07/18 09:47:03;;;;;;;1.50;0.60;;;;;;;;;;5108662;28;20475;-74
2022/07/18 09:49:33;;;;;;;2.83;1.20;;;;;;;;;;5107294;28;20028;-74
2022/07/18 09:52:04;;;;;;;1.73;1.05;;;;;;;;;;5109242;28;20391;-72
2022/07/18 09:54:43;;;;;;;1.45;0.80;;;;;;;;;;5109336;28;20028;-74
2022/07/18 09:57:10;;;;;;;2.15;0.50;;;;;;;;;;5109729;28;20411;-74
2022/07/18 09:59:37;;;;;;;1.33;0.80;;;;;;;;;;5107398;28;20099;-74
2022/07/18 10:02:04;;;;;;;2.22;0.98;;;;;;;;;;5110012;28;20028;-74
2022/07/18 10:04:31;;;;;;;1.73;0.73;;;;;;;;;;5109231;28;20023;-75
2022/07/18 10:07:59;;;;;;;2.55;0.60;;;;;;;;;;5109046;27;20405;-75
2022/07/18 10:11:38;;;;;;;2.20;0.82;;;;;;;;;;5069268;28;20514;-75
2022/07/18 10:14:04;;;;;;;2.17;0.82;;;;;;;;;;5068540;28;20455;-76
2022/07/18 10:16:30;;;;;;;2.58;1.00;;;;;;;;;;5070086;28;20491;-76
2022/07/18 10:18:56;;;;;;;1.30;0.65;;;;;;;;;;5070570;28;20025;-76
2022/07/18 10:21:23;;;;;;;2.30;0.90;;;;;;;;;;5070381;28;20495;-76
2022/07/18 10:23:51;;;;;;;3.58;0.93;;;;;;;;;;5069947;28;20078;-76
2022/07/18 10:26:18;;;;;;;2.22;0.93;;;;;;;;;;5070357;28;20381;-76
2022/07/18 10:28:57;;;;;;;3.00;1.48;;;;;;;;;;5070363;28;20029;-77
2022/07/18 10:31:31;;;;;;;2.33;0.85;;;;;;;;;;5068587;28;20115;-76
2022/07/18 10:34:17;;;;;;;2.60;0.85;;;;;;;;;;5070220;28;20020;-76
2022/07/18 10:36:49;;;;;;;1.25;0.70;;;;;;;;;;5069798;28;20101;-77
2022/07/18 10:39:20;;;;;;;1.80;0.88;;;;;;;;;;5070255;28;20025;-77
2022/07/18 10:41:46;;;;;;;1.13;0.70;;;;;;;;;;5070162;28;20032;-77
2022/07/18 10:44:21;;;;;;;2.97;0.90;;;;;;;;;;5069734;28;20362;-77
2022/07/18 10:47:06;;;;;;;1.38;0.90;;;;;;;;;;5069869;28;20358;-76
2022/07/18 10:49:53;;;;;;;1.15;0.57;;;;;;;;;;5069902;28;20047;-76
2022/07/18 10:52:28;;;;;;;1.83;0.60;;;;;;;;;;5066687;28;20090;-75
2022/07/18 10:57:30;;;;;;;1.33;0.77;;;;;;;;;;5069808;28;20036;-75
2022/07/18 11:00:08;;;;;;;1.98;1.00;;;;;;;;;;5061793;28;20020;-75
2022/07/18 11:02:40;;;;;;;1.63;0.73;;;;;;;;;;5050085;28;20028;-76
2022/07/18 11:05:24;;;;;;;1.45;0.70;;;;;;;;;;5049379;28;20041;-76
2022/07/18 11:07:59;;;;;;;0.88;0.50;;;;;;;;;;5049766;28;20033;-76
2022/07/18 11:10:45;;;;;;;1.98;0.70;;;;;;;;;;5058433;28;20111;-77
2022/07/18 11:13:29;;;;;;;1.48;0.60;;;;;;;;;;5069312;28;20024;-76
2022/07/18 11:16:06;;;;;;;4.82;1.33;;;;;;;;;;5066885;28;20103;-75
2022/07/18 11:18:33;;;;;;;0.90;0.60;;;;;;;;;;5068829;28;20013;-74
2022/07/18 11:20:59;;;;;;;2.50;0.63;;;;;;;;;;5066791;28;20049;-75
2022/07/18 11:23:28;;;;;;;0.82;0.47;;;;;;;;;;5055860;28;20033;-75
2022/07/18 11:25:56;;;;;;;0.82;0.55;;;;;;;;;;5055157;28;20032;-76
2022/07/18 11:28:22;;;;;;;1.50;0.50;;;;;;;;;;5056011;28;20033;-77
2022/07/18 11:31:01;;;;;;;1.08;0.52;;;;;;;;;;5052021;28;20037;-75
2022/07/18 11:33:28;;;;;;;1.52;0.90;;;;;;;;;;5033752;28;20025;-76
2022/07/18 11:36:05;;;;;;;2.55;1.30;;;;;;;;;;5033842;28;20029;-76
2022/07/18 11:38:31;;;;;;;2.53;0.80;;;;;;;;;;5036002;28;20485;-76
2022/07/18 11:40:57;;;;;;;1.50;0.68;;;;;;;;;;5035432;28;20148;-77
2022/07/18 11:43:24;;;;;;;1.48;0.65;;;;;;;;;;5034477;28;20017;-76
2022/07/18 11:46:00;;;;;;;2.00;0.60;;;;;;;;;;5035595;28;20029;-75
2022/07/18 11:48:26;;;;;;;2.53;1.05;;;;;;;;;;5035188;28;20030;-76
2022/07/18 11:50:52;;;;;;;2.90;0.75;;;;;;;;;;5033872;28;20040;-76
2022/07/18 11:53:19;;;;;;;4.78;1.10;;;;;;;;;;5034627;28;20056;-76
2022/07/18 11:55:45;;;;;;;1.90;0.70;;;;;;;;;;5043358;28;20033;-76
2022/07/18 11:58:12;;;;;;;2.22;0.80;;;;;;;;;;5053444;28;20021;-76
2022/07/18 12:00:39;;;;;;;1.60;0.70;;;;;;;;;;5055053;28;20456;-76
2022/07/18 12:03:15;;;;;;;0.75;0.50;;;;;;;;;;5053419;28;20535;-76
2022/07/18 12:05:49;;;;;;;4.15;0.93;;;;;;;;;;5055253;28;20505;-76
2022/07/18 12:08:29;;;;;;;2.35;0.80;;;;;;;;;;5054835;28;20017;-76
2022/07/18 12:11:15;;;;;;;2.42;0.82;;;;;;;;;;5054943;28;20041;-77
2022/07/18 12:13:48;;;;;;;1.75;0.75;;;;;;;;;;5055090;28;20017;-72
2022/07/18 12:16:44;;;;;;;2.30;0.80;;;;;;;;;;5054138;28;20447;-76
2022/07/18 12:19:18;;;;;;;3.13;0.90;;;;;;;;;;5026399;28;20497;-77
2022/07/18 12:21:47;;;;;;;0.90;0.60;;;;;;;;;;5042125;28;20025;-76
2022/07/18 12:24:19;;;;;;;4.65;0.73;;;;;;;;;;5054556;28;20052;-74
2022/07/18 12:26:45;;;;;;;0.68;0.50;;;;;;;;;;5054676;28;20025;-74
2022/07/18 12:29:11;;;;;;;1.33;0.85;;;;;;;;;;5053372;28;20078;-76
2022/07/18 12:31:39;;;;;;;0.90;0.50;;;;;;;;;;5054684;28;20067;-76
2022/07/18 12:34:12;;;;;;;1.02;0.57;;;;;;;;;;5053697;28;20029;-76
2022/07/18 12:36:57;;;;;;;2.20;0.50;;;;;;;;;;5054218;28;20029;-76
2022/07/18 12:39:30;;;;;;;1.15;0.65;;;;;;;;;;5052987;28;20119;-75
2022/07/18 12:41:57;;;;;;;1.55;0.70;;;;;;;;;;5053316;28;20548;-73
2022/07/18 12:44:24;;;;;;;1.00;0.50;;;;;;;;;;5052578;28;20029;-74
2022/07/18 12:46:50;;;;;;;2.10;0.70;;;;;;;;;;5050002;28;20437;-73
2022/07/18 12:49:16;;;;;;;0.63;0.40;;;;;;;;;;5049662;28;20032;-73
2022/07/18 12:51:42;;;;;;;1.38;0.60;;;;;;;;;;5052410;28;20029;-73
2022/07/18 12:54:08;;;;;;;1.20;0.77;;;;;;;;;;5052376;28;20025;-73
2022/07/18 12:56:35;;;;;;;1.52;0.60;;;;;;;;;;5051706;28;20398;-74
2022/07/18 12:59:01;;;;;;;1.73;0.50;;;;;;;;;;5053126;28;20423;-74
2022/07/18 13:01:27;;;;;;;1.02;0.70;;;;;;;;;;5050109;28;20025;-73
2022/07/18 13:03:53;;;;;;;1.33;0.60;;;;;;;;;;5053867;28;20055;-73
2022/07/18 13:06:19;;;;;;;2.60;0.70;;;;;;;;;;5053685;28;20045;-76
2022/07/18 13:08:46;;;;;;;10.20;1.98;;;;;;;;;;5053558;28;20021;-73
2022/07/18 13:11:12;;;;;;;7.68;1.33;;;;;;;;;;5051166;28;20048;-73
2022/07/18 13:13:38;;;;;;;5.63;1.35;;;;;;;;;;5051641;28;20028;-75
2022/07/18 13:16:04;;;;;;;3.60;1.77;;;;;;;;;;5050795;28;20078;-71
2022/07/18 13:18:30;;;;;;;2.17;0.95;;;;;;;;;;5052770;28;20099;-72
2022/07/18 13:20:56;;;;;;;1.52;0.70;;;;;;;;;;5053155;28;20068;-73
2022/07/18 13:23:22;;;;;;;2.25;1.00;;;;;;;;;;5053216;28;20018;-74
2022/07/18 13:25:49;;;;;;;2.85;0.85;;;;;;;;;;5053492;28;20044;-73
2022/07/18 13:28:15;;;;;;;2.55;0.60;;;;;;;;;;5053839;28;20021;-72
2022/07/18 13:30:41;;;;;;;2.70;0.82;;;;;;;;;;5053332;28;20059;-74
2022/07/18 13:33:07;;;;;;;2.13;0.70;;;;;;;;;;5052124;28;20021;-73
2022/07/18 13:35:34;;;;;;;2.63;0.73;;;;;;;;;;5052229;28;20385;-74
2022/07/18 13:38:00;;;;;;;1.80;0.80;;;;;;;;;;5053651;28;20025;-74
2022/07/18 13:40:26;;;;;;;1.10;0.57;;;;;;;;;;5053126;28;20035;-74
2022/07/18 13:42:52;;;;;;;1.77;0.82;;;;;;;;;;5053627;28;20017;-74
2022/07/18 13:45:19;;;;;;;2.15;0.80;;;;;;;;;;5052465;28;20496;-75
2022/07/18 13:47:45;;;;;;;2.13;0.80;;;;;;;;;;5051496;28;20020;-73
2022/07/18 13:50:12;;;;;;;3.08;0.52;;;;;;;;;;5052905;28;20044;-74
2022/07/18 13:52:38;;;;;;;1.83;0.80;;;;;;;;;;5052974;28;20389;-72
2022/07/18 13:55:04;;;;;;;1.35;0.70;;;;;;;;;;5051843;28;20032;-73
2022/07/18 13:57:30;;;;;;;19.77;2.15;;;;;;;;;;5053454;28;20021;-73
2022/07/18 13:59:56;;;;;;;1.15;0.60;;;;;;;;;;5053293;28;20063;-73
2022/07/18 14:02:23;;;;;;;2.35;0.75;;;;;;;;;;5051605;28;20031;-75
2022/07/18 14:04:49;;;;;;;1.85;0.60;;;;;;;;;;5052121;28;20025;-73
2022/07/18 14:07:17;;;;;;;2.88;0.93;;;;;;;;;;5053251;28;20025;-73
2022/07/18 14:09:44;;;;;;;1.20;0.40;;;;;;;;;;5052414;28;20099;-73
2022/07/18 14:12:10;;;;;;;0.68;0.40;;;;;;;;;;5053154;28;20029;-73
2022/07/18 14:14:36;;;;;;;0.68;0.47;;;;;;;;;;5053134;28;20496;-73
2022/07/18 14:17:02;;;;;;;3.25;0.73;;;;;;;;;;5051615;28;20443;-74
2022/07/18 14:19:29;;;;;;;1.75;0.50;;;;;;;;;;5051730;28;20039;-73
2022/07/18 14:21:55;;;;;;;0.93;0.60;;;;;;;;;;5051328;28;20029;-73
2022/07/18 14:24:21;;;;;;;1.15;0.80;;;;;;;;;;5053105;28;20017;-75
2022/07/18 14:26:48;;;;;;;2.22;0.52;;;;;;;;;;5051636;28;20032;-74
2022/07/18 14:29:14;;;;;;;1.63;0.70;;;;;;;;;;5052736;28;20100;-74
2022/07/18 14:31:40;;;;;;;2.35;0.60;;;;;;;;;;5052860;28;20400;-74
2022/07/18 14:34:06;;;;;;;1.33;0.82;;;;;;;;;;5052985;28;20021;-75
2022/07/18 14:36:32;;;;;;;3.30;0.73;;;;;;;;;;5052596;28;20036;-74
2022/07/18 14:38:58;;;;;;;0.75;0.50;;;;;;;;;;5053033;28;20388;-72
2022/07/18 14:41:25;;;;;;;1.10;0.60;;;;;;;;;;5053033;28;20506;-73
2022/07/18 14:43:51;;;;;;;3.42;0.77;;;;;;;;;;5052880;28;20025;-74
2022/07/18 14:46:17;;;;;;;2.20;0.70;;;;;;;;;;5052968;28;20025;-75
2022/07/18 14:48:43;;;;;;;1.50;0.75;;;;;;;;;;5051491;28;20491;-73
2022/07/18 14:51:09;;;;;;;1.73;1.00;;;;;;;;;;5051284;28;20033;-74
2022/07/18 14:53:35;;;;;;;2.97;0.60;;;;;;;;;;5051110;28;20477;-75
2022/07/18 14:56:01;;;;;;;2.85;0.82;;;;;;;;;;5052913;28;20040;-74
2022/07/18 14:58:27;;;;;;;1.13;0.57;;;;;;;;;;5056193;28;20496;-74
2022/07/18 15:00:54;;;;;;;1.90;0.60;;;;;;;;;;5056537;28;20512;-74
2022/07/18 15:03:20;;;;;;;1.60;0.68;;;;;;;;;;5055404;28;20070;-75
2022/07/18 15:05:46;;;;;;;1.13;0.90;;;;;;;;;;5056222;28;20029;-74
2022/07/18 15:08:13;;;;;;;1.20;0.77;;;;;;;;;;5056500;28;20100;-74
2022/07/18 15:10:39;;;;;;;1.27;0.63;;;;;;;;;;5056285;28;20089;-74
2022/07/18 15:13:05;;;;;;;1.75;0.82;;;;;;;;;;5056103;28;20028;-75
2022/07/18 15:15:32;;;;;;;1.67;0.85;;;;;;;;;;5055159;28;20115;-74
2022/07/18 15:17:58;;;;;;;1.08;0.65;;;;;;;;;;5056113;28;20059;-74
2022/07/18 15:20:24;;;;;;;1.10;0.50;;;;;;;;;;5054935;28;20024;-72
2022/07/18 15:22:51;;;;;;;1.50;0.93;;;;;;;;;;5054970;28;20114;-72
2022/07/18 15:25:18;;;;;;;1.05;0.60;;;;;;;;;;5054680;28;20784;-72
2022/07/18 15:27:44;;;;;;;1.88;0.85;;;;;;;;;;5056461;28;20071;-74
2022/07/18 15:30:10;;;;;;;0.88;0.60;;;;;;;;;;5056096;28;20448;-73
2022/07/18 15:32:38;;;;;;;1.92;0.60;;;;;;;;;;5055730;28;20041;-75
2022/07/18 15:35:04;;;;;;;1.10;0.60;;;;;;;;;;5054694;28;20029;-73
2022/07/18 15:37:31;;;;;;;1.17;0.45;;;;;;;;;;5055968;28;20104;-74
2022/07/18 15:39:57;;;;;;;0.88;0.63;;;;;;;;;;5055672;28;20018;-73
2022/07/18 15:42:23;;;;;;;2.60;0.68;;;;;;;;;;5055973;28;20075;-74
2022/07/18 15:44:49;;;;;;;1.05;0.57;;;;;;;;;;5054604;28;20021;-73
2022/07/18 15:47:15;;;;;;;1.20;0.80;;;;;;;;;;5054056;28;20048;-75
2022/07/18 15:49:41;;;;;;;1.63;0.60;;;;;;;;;;5055768;28;20025;-74
2022/07/18 15:52:08;;;;;;;0.75;0.57;;;;;;;;;;5055632;28;20040;-74
2022/07/18 15:54:35;;;;;;;3.25;1.13;;;;;;;;;;5055327;28;20025;-74
2022/07/18 15:57:01;;;;;;;1.33;0.85;;;;;;;;;;5054306;28;20036;-75
2022/07/18 15:59:27;;;;;;;1.23;0.75;;;;;;;;;;5054368;28;20021;-74
2022/07/18 16:01:54;;;;;;;1.92;0.70;;;;;;;;;;5055217;28;20032;-74
2022/07/18 16:04:21;;;;;;;2.15;0.80;;;;;;;;;;5055415;28;20021;-74
2022/07/18 16:06:47;;;;;;;7.40;1.00;;;;;;;;;;5055455;28;20039;-73
2022/07/18 16:09:13;;;;;;;2.40;0.70;;;;;;;;;;5054730;28;20029;-73
2022/07/18 16:11:40;;;;;;;2.72;0.80;;;;;;;;;;5053988;28;20033;-74
2022/07/18 16:14:07;;;;;;;1.50;0.80;;;;;;;;;;5055349;28;20411;-74
2022/07/18 16:16:34;;;;;;;4.10;1.00;;;;;;;;;;5054831;28;20448;-74
2022/07/18 16:19:00;;;;;;;1.63;1.08;;;;;;;;;;5055285;28;20025;-74
2022/07/18 16:21:26;;;;;;;2.83;0.80;;;;;;;;;;5054809;28;20067;-74
2022/07/18 16:23:52;;;;;;;1.20;0.80;;;;;;;;;;5055132;28;20028;-74
2022/07/18 16:26:18;;;;;;;1.75;0.75;;;;;;;;;;5053883;28;20385;-74
2022/07/18 16:28:44;;;;;;;3.78;0.90;;;;;;;;;;5054611;28;20543;-74
2022/07/18 16:31:11;;;;;;;2.75;0.95;;;;;;;;;;5055102;28;20044;-75